ESSA Airport Information

Runway Information
Runway 01L Length 10830 ft width 148 ft
Elevation 98 ft Threshold 0 ft Heading 10
Runway 19R Length 10830 ft Width 148 ft
Elevation 118 ft Threshold 0 ft Heading 190
Runway 01R Length 8201 ft width 148 ft
Elevation 137 ft Threshold 0 ft Heading 10
Runway 19L Length 8201 ft Width 148 ft
Elevation 98 ft Threshold 0 ft Heading 190
Runway 08 Length 8202 ft width 148 ft
Elevation 108 ft Threshold 0 ft Heading 76
Runway 26 Length 8202 ft Width 148 ft
Elevation 124 ft Threshold 0 ft Heading 256
Airport Frequencies
Type APP Name STOCKHOLM Frequency 123.75 MHZ
Type ATIS Name ATIS Frequency 119 MHZ
Type CLD Name CLNC DEL Frequency 121.825 MHZ
Type GND Name GND Frequency 121.7 MHZ
Type PMSV Name MET OFFICE Frequency 122.6 MHZ
Type TWR Name TWR Frequency 118.5 MHZ
Airport Navaids
Type VOR-DME Name Arlanda Frequency 116000 KHZ
Type NDB Name Arlanda Frequency 352 KHZ
Type NDB Name Arlanda Frequency 360 KHZ
Type NDB Name Arlanda Frequency 404 KHZ
Type NDB Name Arlanda Frequency 370 KHZ
Airport Weather Information & NOTAM
ADDS - METARS form results

(1018 UTC 16 November 2018)
Data provider http://aviationweather.gov/metar/data/
 
METAR text: ESSA 160950Z 25013KT 9999 FEW016 09/06 Q1034 R01L/19//95 R08/19//95 R01R/19//95 NOSIG
Conditions at: ESSA (STOCKHOLM/ARLAND, SE) observed 0950 UTC 16 November 2018
Temperature: 9.0°C (48°F)
Dewpoint: 6.0°C (43°F) [RH = 81%]
Pressure (altimeter): 30.53 inches Hg (1034.0 mb)
Winds: from the WSW (250 degrees) at 15 MPH (13 knots; 6.7 m/s)
Visibility: 6 or more miles (10+ km)
Ceiling: at least 12,000 feet AGL
Clouds: few clouds at 1600 feet AGL
Weather: no significant weather observed at this time

METAR text: ESSA 160920Z 26012KT 9999 FEW017 09/06 Q1034 R01L/19//95 R08/19//95 R01R/19//95 NOSIG
Conditions at: ESSA (STOCKHOLM/ARLAND, SE) observed 0920 UTC 16 November 2018
Temperature: 9.0°C (48°F)
Dewpoint: 6.0°C (43°F) [RH = 81%]
Pressure (altimeter): 30.53 inches Hg (1034.0 mb)
Winds: from the W (260 degrees) at 14 MPH (12 knots; 6.2 m/s)
Visibility: 6 or more miles (10+ km)
Ceiling: at least 12,000 feet AGL
Clouds: few clouds at 1700 feet AGL
Weather: no significant weather observed at this time

Forecast for: ESSA (STOCKHOLM/ARLAND, SE)
Text: TAF ESSA 160530Z 1606/1706 22008KT CAVOK
Forecast period: 0600 UTC 16 November 2018 to 0600 UTC 17 November 2018
Forecast type: FROM: standard forecast or significant change
Winds: from the SW (220 degrees) at 9 MPH (8 knots; 4.1 m/s)
Visibility: 6 or more miles 10+ km)
Ceiling: unknown
Clouds: missing
Weather: NSW  (no significant weather)